Airfield :
LOGIN :

Register | Disclaimer

   EN    FR    IT 

 










Legend :    VFR   Marginal VFR   IFR   Intensive IFR   Very Intensive IFR
Visi :
Ceiling :
>= 8 km
>= 3000ft
5 to 8 km
1000 to 3000 ft
1500m to 5 km
500 to 1000 ft
800 to 1500m
200 to 500 ft
< 800m
< 200 ft
Symbols :   Thunderstorms  Fog  Heavy snow  Heavy precipitations  Wind > 20 kt
SIGMETs :     Misc.  Thunderstorms  Icing  Turbulence  Mountain Waves  Volcanic Ashes






- Airport Elevation : 74 ft
- IATA code : EIN


EHEH - Eindhoven

CURRENT METAR :
  • 221425Z AUTO 27006KT 230V330 9999 SCT013 OVC016 06/04 Q1035 GRN TEMPO SCT007 BKN010

EXPIRED METARs :
  • 221355Z AUTO 26006KT 230V300 9999 FEW011 BKN014 OVC016 06/04 Q1035 GRN TEMPO SCT007 BKN010
  • 221325Z AUTO 26007KT 230V290 8000 BR BKN009 OVC011 06/05 Q1035 GRN TEMPO SCT007 BKN010
  • 221255Z AUTO 26008KT 230V320 9999 FEW009 BKN011 BKN013 06/05 Q1035 GRN TEMPO SCT007 BKN010
  • 221225Z AUTO 26007KT 230V300 9999 SCT009 OVC011 07/05 Q1035 GRN TEMPO SCT007 BKN010
  • 221155Z AUTO 26007KT 230V290 9999 BKN013 OVC015 07/05 Q1035 GRN TEMPO SCT010 BKN012

TAF TAF EHEH
Valid from the 22 at 12:00 until the 23 at 18:00 UTC


221129Z 2212/2318 25005KT 9999 BKN016
TEMPO 2212/2224 BKN012
PROB30
TEMPO 2212/2224 3500 -DZ BKN007 OVC010
BECMG 2222/2224 BKN025
TEMPO 2300/2312 3000 BR -DZ BKN004 OVC007
PROB30
TEMPO 2306/2310 0600 FG BKN001



MET'MAP, your aeronautical weather chart ! - Copyright ORBIFLY December 2007 - Disclaimer

ORBIFLY MET'MAP TEAM :

Programming & Development : Alexandra Zaïnal
Concept & original design : Baudouin d'Aumeries
Assistance for programming : Marc-Olivier Méhu
Technical & hardware support : Manuel Goepfert

Contact : metmap@orbifly.com




SOURCES & CREDITS :

   NOAA